KGWO/GWO METAR and TAF weather

Enter ICAO airport designator
Station Type Date Time Source
KGWO METAR 2019/04/20 21:53 UTC NOAA

KGWO 202153Z AUTO 32007KT 10SM CLR 21/M01 A2996 RMK AO2 SLP143 T02061011


Station Type Date Time Source
KGWO Decoded METAR 2019/04/20 21:53 UTC NOAA

GREENWOOD-LEFLORE AIRPORT, MS, United States (KGWO) 33-30N 090-05W 44M
Apr 20, 2019 - 05:53 PM EDT / 2019.04.20 2153 UTC
Wind: from the NW (320 degrees) at 8 MPH (7 KT):0
Visibility: 10 mile(s):0
Sky conditions: clear
Temperature: 69.1 F (20.6 C)
Dew Point: 30.0 F (-1.1 C)
Relative Humidity: 23%
Pressure (altimeter): 29.96 in. Hg (1014 hPa)
ob: KGWO 202153Z AUTO 32007KT 10SM CLR 21/M01 A2996 RMK AO2 SLP143 T02061011
cycle: 22

Station Type Date Time Source
KGWO TAF 2019/04/20 18:28 UTC NOAA

TAF KGWO 201725Z 2018/2118 33012G20KT P6SM SKC
FM210000 22003KT P6SM SKC

Example: see airport list